createdAt,value
2023-03-22T00:00:05.778Z,7.80
2023-03-22T00:01:12.496Z,7.80
2023-03-22T00:02:14.540Z,7.80
2023-03-22T00:03:16.448Z,7.90
2023-03-22T00:04:18.227Z,7.80
2023-03-22T00:05:20.310Z,7.90
2023-03-22T00:06:22.152Z,7.90
2023-03-22T00:07:24.028Z,7.70
2023-03-22T00:08:26.062Z,7.80
2023-03-22T00:09:27.787Z,7.80
2023-03-22T00:10:29.511Z,7.70
2023-03-22T00:11:31.250Z,7.70
2023-03-22T00:12:33.006Z,7.70
2023-03-22T00:13:37.278Z,7.70
2023-03-22T00:14:39.144Z,7.70
2023-03-22T00:15:45.497Z,7.70
2023-03-22T00:16:49.215Z,7.70
2023-03-22T00:17:51.887Z,7.70
2023-03-22T00:18:53.623Z,7.60
2023-03-22T00:19:55.428Z,7.70
2023-03-22T00:20:58.922Z,7.60
2023-03-22T00:22:01.213Z,7.60
2023-03-22T00:23:03.008Z,7.60
2023-03-22T00:24:05.326Z,7.60
2023-03-22T00:25:07.378Z,7.60
2023-03-22T00:26:10.780Z,7.50
2023-03-22T00:27:13.032Z,7.50
2023-03-22T00:28:16.361Z,7.50
2023-03-22T00:29:19.596Z,7.60
2023-03-22T00:30:21.356Z,7.60
2023-03-22T00:31:23.134Z,7.60
2023-03-22T00:32:24.911Z,7.50
2023-03-22T00:33:27.816Z,7.60
2023-03-22T00:34:33.300Z,7.60
2023-03-22T00:35:35.172Z,7.60
2023-03-22T00:36:37.929Z,7.60
2023-03-22T00:37:39.772Z,7.60
2023-03-22T00:38:43.148Z,7.60
2023-03-22T00:39:45.408Z,7.60
2023-03-22T00:40:47.235Z,7.60
2023-03-22T00:41:49.043Z,7.60
2023-03-22T00:42:51.127Z,7.60
2023-03-22T00:43:52.845Z,7.60
2023-03-22T00:44:54.761Z,7.60
2023-03-22T00:45:56.478Z,7.50
2023-03-22T00:46:58.935Z,7.50
2023-03-22T00:48:00.731Z,7.50
2023-03-22T00:49:02.476Z,7.50
2023-03-22T00:50:05.635Z,7.50
2023-03-22T00:51:08.430Z,7.50
2023-03-22T00:52:10.330Z,7.50
2023-03-22T00:53:12.125Z,7.50
2023-03-22T00:54:13.897Z,7.40
2023-03-22T00:55:15.900Z,7.50
2023-03-22T00:56:18.785Z,7.40
2023-03-22T00:57:20.824Z,7.40
2023-03-22T00:58:22.654Z,7.40
2023-03-22T00:59:24.340Z,7.40
2023-03-22T01:00:26.218Z,7.40
2023-03-22T01:01:28.082Z,7.40
2023-03-22T01:02:29.847Z,7.40
2023-03-22T01:03:33.331Z,7.40
2023-03-22T01:04:35.724Z,7.40
2023-03-22T01:05:37.738Z,7.40
2023-03-22T01:06:39.557Z,7.40
2023-03-22T01:07:44.825Z,7.40
2023-03-22T01:08:46.577Z,7.40
2023-03-22T01:09:48.876Z,7.30
2023-03-22T01:10:50.892Z,7.30
2023-03-22T01:11:52.665Z,7.30
2023-03-22T01:12:56.743Z,7.30
2023-03-22T01:13:59.549Z,7.20
2023-03-22T01:15:01.454Z,7.20
2023-03-22T01:16:03.853Z,7.20
2023-03-22T01:17:07.252Z,7.20
2023-03-22T01:18:09.338Z,7.20
2023-03-22T01:19:11.197Z,7.20
2023-03-22T01:20:13.145Z,7.20
2023-03-22T01:21:14.882Z,7.10
2023-03-22T01:22:16.608Z,7.10
2023-03-22T01:23:18.286Z,7.10
2023-03-22T01:24:20.574Z,7.10
2023-03-22T01:25:22.330Z,7.20
2023-03-22T01:26:24.608Z,7.10
2023-03-22T01:27:26.572Z,7.10
2023-03-22T01:28:29.493Z,7.00
2023-03-22T01:29:31.652Z,7.00
2023-03-22T01:30:33.425Z,7.00
2023-03-22T01:31:35.387Z,7.00
2023-03-22T01:32:37.617Z,6.90
2023-03-22T01:33:39.324Z,7.00
2023-03-22T01:34:41.050Z,7.00
2023-03-22T01:35:42.977Z,7.00
2023-03-22T01:36:44.849Z,6.90
2023-03-22T01:37:46.565Z,6.90
2023-03-22T01:38:48.280Z,6.90
2023-03-22T01:39:49.984Z,6.90
2023-03-22T01:40:52.122Z,6.90
2023-03-22T01:41:53.841Z,6.80
2023-03-22T01:42:56.144Z,6.80
2023-03-22T01:44:09.572Z,6.80
2023-03-22T01:45:14.403Z,6.70
2023-03-22T01:46:16.132Z,6.70
2023-03-22T01:47:17.924Z,6.60
2023-03-22T01:48:26.688Z,6.60
2023-03-22T01:49:32.786Z,6.50
2023-03-22T01:50:37.546Z,6.50
2023-03-22T01:51:42.150Z,6.50
2023-03-22T01:52:45.013Z,6.40
2023-03-22T01:53:50.684Z,6.40
2023-03-22T01:54:54.605Z,6.40
2023-03-22T01:55:58.157Z,6.30
2023-03-22T01:57:00.530Z,6.30
2023-03-22T01:58:03.422Z,6.30
2023-03-22T01:59:06.301Z,6.20
2023-03-22T02:00:13.839Z,6.10
2023-03-22T02:01:16.309Z,6.10
2023-03-22T02:02:22.203Z,6.10
2023-03-22T02:03:44.277Z,6.10
2023-03-22T02:04:50.910Z,6.00
2023-03-22T02:05:53.949Z,6.00
2023-03-22T02:06:55.868Z,6.00
2023-03-22T02:07:58.372Z,6.00
2023-03-22T02:09:00.101Z,6.00
2023-03-22T02:10:01.987Z,6.00
2023-03-22T02:11:04.856Z,6.10
2023-03-22T02:12:31.783Z,6.00
2023-03-22T02:13:53.749Z,6.00
2023-03-22T02:15:07.938Z,5.90
2023-03-22T02:16:33.003Z,5.90
2023-03-22T02:17:59.742Z,5.90
2023-03-22T02:19:47.706Z,5.90
2023-03-22T02:21:07.279Z,5.90
2023-03-22T02:22:24.073Z,5.90
2023-03-22T02:23:53.271Z,5.80
2023-03-22T02:24:58.158Z,5.80
2023-03-22T02:25:59.919Z,5.80
2023-03-22T02:27:10.529Z,5.80
2023-03-22T02:28:39.486Z,5.80
2023-03-22T02:30:00.569Z,5.80
2023-03-22T02:31:26.180Z,5.80
2023-03-22T02:33:05.143Z,5.80
2023-03-22T02:34:15.693Z,5.70
2023-03-22T02:35:26.076Z,5.70
2023-03-22T02:36:55.244Z,5.70
2023-03-22T02:38:18.047Z,5.70
2023-03-22T02:39:26.941Z,5.70
2023-03-22T02:40:39.701Z,5.70
2023-03-22T02:42:07.245Z,5.70
2023-03-22T02:43:46.143Z,5.60
2023-03-22T02:45:02.269Z,5.60
2023-03-22T02:46:25.223Z,5.60
2023-03-22T02:47:35.104Z,5.60
2023-03-22T02:48:54.258Z,5.50
2023-03-22T02:50:07.547Z,5.50
2023-03-22T02:51:21.361Z,5.50
2023-03-22T02:52:42.926Z,5.50
2023-03-22T02:54:03.401Z,5.50
2023-03-22T02:55:05.053Z,5.50
2023-03-22T02:56:25.262Z,5.50
2023-03-22T02:57:36.593Z,5.50
2023-03-22T02:58:47.682Z,5.40
2023-03-22T02:59:51.731Z,5.40
2023-03-22T03:01:02.564Z,5.40
2023-03-22T03:02:06.145Z,5.40
2023-03-22T03:03:12.996Z,5.40
2023-03-22T03:04:19.860Z,5.40
2023-03-22T03:05:23.133Z,5.40
2023-03-22T03:06:28.859Z,5.30
2023-03-22T03:07:31.433Z,5.40
2023-03-22T03:08:33.407Z,5.30
2023-03-22T03:09:36.639Z,5.40
2023-03-22T03:10:41.424Z,5.40
2023-03-22T03:11:45.554Z,5.40
2023-03-22T03:12:47.463Z,5.30
2023-03-22T03:13:50.353Z,5.30
2023-03-22T03:14:52.592Z,5.30
2023-03-22T03:15:59.229Z,5.30
2023-03-22T03:17:25.589Z,5.30
2023-03-22T03:18:46.206Z,5.30
2023-03-22T03:20:30.430Z,5.30
2023-03-22T03:21:36.967Z,5.30
2023-03-22T03:22:38.610Z,5.30
2023-03-22T03:23:47.001Z,5.30
2023-03-22T03:25:02.231Z,5.30
2023-03-22T03:26:08.289Z,5.30
2023-03-22T03:27:17.750Z,5.30
2023-03-22T03:28:40.346Z,5.30
2023-03-22T03:30:00.265Z,5.30
2023-03-22T03:31:41.869Z,5.30
2023-03-22T03:32:59.715Z,5.30
2023-03-22T03:34:26.005Z,5.30
2023-03-22T03:35:37.658Z,5.30
2023-03-22T03:36:44.200Z,5.30
2023-03-22T03:37:52.640Z,5.30
2023-03-22T03:38:56.230Z,5.30
2023-03-22T03:40:09.774Z,5.30
2023-03-22T03:41:17.552Z,5.30
2023-03-22T03:42:20.860Z,5.30
2023-03-22T03:43:23.489Z,5.30
2023-03-22T03:44:25.536Z,5.30
2023-03-22T03:45:27.670Z,5.30
2023-03-22T03:46:30.245Z,5.30
2023-03-22T03:47:32.705Z,5.30
2023-03-22T03:48:38.018Z,5.30
2023-03-22T03:49:39.997Z,5.20
2023-03-22T03:50:42.415Z,5.20
2023-03-22T03:51:55.631Z,5.30
2023-03-22T03:52:57.603Z,5.20
2023-03-22T03:53:59.329Z,5.20
2023-03-22T03:55:01.218Z,5.20
2023-03-22T03:56:02.986Z,5.30
2023-03-22T03:57:04.754Z,5.20
2023-03-22T03:58:06.545Z,5.20
2023-03-22T03:59:09.183Z,5.20
2023-03-22T04:00:11.599Z,5.20
2023-03-22T04:01:13.402Z,5.20
2023-03-22T04:02:16.719Z,5.20
2023-03-22T04:03:18.602Z,5.20
2023-03-22T04:04:28.590Z,5.10
2023-03-22T04:05:30.519Z,5.20
2023-03-22T04:06:34.653Z,5.20
2023-03-22T04:07:36.477Z,5.00
2023-03-22T04:08:38.158Z,5.10
2023-03-22T04:09:41.250Z,5.10
2023-03-22T04:10:43.964Z,5.00
2023-03-22T04:11:46.060Z,5.00
2023-03-22T04:12:47.738Z,5.00
2023-03-22T04:13:49.477Z,5.00
2023-03-22T04:14:51.139Z,5.00
2023-03-22T04:15:54.292Z,5.00
2023-03-22T04:16:56.523Z,5.00
2023-03-22T04:17:58.812Z,5.00
2023-03-22T04:19:00.668Z,4.90
2023-03-22T04:20:05.832Z,4.90
2023-03-22T04:21:07.842Z,4.90
2023-03-22T04:22:14.615Z,4.90
2023-03-22T04:23:16.854Z,4.80
2023-03-22T04:24:19.114Z,4.80
2023-03-22T04:25:22.792Z,4.80
2023-03-22T04:26:26.658Z,4.80
2023-03-22T04:27:28.609Z,4.70
2023-03-22T04:28:33.477Z,4.70
2023-03-22T04:29:36.268Z,4.70
2023-03-22T04:30:38.585Z,4.70
2023-03-22T04:31:40.799Z,4.70
2023-03-22T04:32:42.838Z,4.70
2023-03-22T04:33:46.937Z,4.70
2023-03-22T04:34:50.003Z,4.70
2023-03-22T04:35:56.849Z,4.60
2023-03-22T04:37:02.543Z,4.60
2023-03-22T04:38:04.429Z,4.60
2023-03-22T04:39:09.433Z,4.60
2023-03-22T04:40:17.210Z,4.60
2023-03-22T04:41:19.067Z,4.60
2023-03-22T04:42:20.923Z,4.60
2023-03-22T04:43:22.989Z,4.60
2023-03-22T04:44:24.731Z,4.60
2023-03-22T04:45:29.182Z,4.60
2023-03-22T04:46:32.361Z,4.60
2023-03-22T04:47:34.172Z,4.60
2023-03-22T04:48:37.917Z,4.60
2023-03-22T04:49:39.747Z,4.60
2023-03-22T04:50:41.764Z,4.60
2023-03-22T04:51:43.734Z,4.50
2023-03-22T04:52:45.443Z,4.50
2023-03-22T04:53:47.295Z,4.50
2023-03-22T04:54:48.993Z,4.60
2023-03-22T04:55:50.677Z,4.50
2023-03-22T04:56:52.400Z,4.50
2023-03-22T04:57:54.735Z,4.50
2023-03-22T04:58:56.712Z,4.50
2023-03-22T04:59:58.481Z,4.50
2023-03-22T05:01:00.401Z,4.50
2023-03-22T05:02:02.453Z,4.50
2023-03-22T05:03:04.262Z,4.50
2023-03-22T05:04:06.356Z,4.40
2023-03-22T05:05:08.194Z,4.50
2023-03-22T05:06:10.412Z,4.50
2023-03-22T05:07:12.231Z,4.50
2023-03-22T05:08:14.328Z,4.50
2023-03-22T05:09:16.234Z,4.50
2023-03-22T05:10:18.056Z,4.50
2023-03-22T05:11:20.475Z,4.50
2023-03-22T05:12:22.240Z,4.50
2023-03-22T05:13:26.805Z,4.50
2023-03-22T05:14:28.599Z,4.50
2023-03-22T05:15:32.450Z,4.40
2023-03-22T05:16:34.744Z,4.40
2023-03-22T05:17:36.509Z,4.40
2023-03-22T05:18:45.391Z,4.40
2023-03-22T05:19:47.754Z,4.40
2023-03-22T05:20:49.454Z,4.40
2023-03-22T05:21:58.577Z,4.30
2023-03-22T05:23:02.855Z,4.30
2023-03-22T05:24:05.158Z,4.40
2023-03-22T05:25:08.743Z,4.30
2023-03-22T05:26:11.464Z,4.30
2023-03-22T05:27:14.233Z,4.30
2023-03-22T05:28:19.601Z,4.30
2023-03-22T05:29:22.274Z,4.30
2023-03-22T05:30:24.205Z,4.30
2023-03-22T05:31:28.626Z,4.30
2023-03-22T05:32:30.424Z,4.30
2023-03-22T05:33:32.158Z,4.30
2023-03-22T05:34:35.830Z,4.30
2023-03-22T05:35:40.514Z,4.30
2023-03-22T05:36:42.274Z,4.30
2023-03-22T05:37:44.459Z,4.30
2023-03-22T05:38:46.823Z,4.30
2023-03-22T05:39:48.644Z,4.30
2023-03-22T05:40:50.725Z,4.30
2023-03-22T05:41:52.477Z,4.30
2023-03-22T05:42:54.788Z,4.30
2023-03-22T05:43:56.471Z,4.40
2023-03-22T05:44:58.186Z,4.40
2023-03-22T05:45:59.887Z,4.40
2023-03-22T05:47:01.561Z,4.30
2023-03-22T05:48:04.411Z,4.30
2023-03-22T05:49:06.928Z,4.30
2023-03-22T05:50:14.436Z,4.30
2023-03-22T05:51:19.780Z,4.30
2023-03-22T05:52:21.544Z,4.30
2023-03-22T05:53:23.292Z,4.30
2023-03-22T05:54:25.371Z,4.30
2023-03-22T05:55:27.376Z,4.30
2023-03-22T05:56:29.043Z,4.30
2023-03-22T05:57:31.055Z,4.30
2023-03-22T05:58:33.873Z,4.30
2023-03-22T05:59:35.646Z,4.30
2023-03-22T06:00:38.573Z,4.30
2023-03-22T06:01:41.018Z,4.30
2023-03-22T06:02:47.831Z,4.30
2023-03-22T06:03:50.446Z,4.30
2023-03-22T06:04:52.210Z,4.40
2023-03-22T06:05:54.949Z,4.40
2023-03-22T06:06:56.690Z,4.40
2023-03-22T06:08:00.208Z,4.40
2023-03-22T06:09:15.931Z,4.40
2023-03-22T06:10:18.593Z,4.40
2023-03-22T06:11:20.415Z,4.40
2023-03-22T06:12:27.167Z,4.40
2023-03-22T06:13:30.012Z,4.40
2023-03-22T06:14:31.829Z,4.50
2023-03-22T06:15:33.534Z,4.50
2023-03-22T06:16:35.538Z,4.50
2023-03-22T06:17:37.866Z,4.50
2023-03-22T06:18:39.617Z,4.50
2023-03-22T06:19:41.385Z,4.60
2023-03-22T06:20:43.818Z,4.60
2023-03-22T06:21:45.651Z,4.70
2023-03-22T06:22:47.491Z,4.70
2023-03-22T06:23:49.210Z,4.80
2023-03-22T06:24:51.208Z,4.80
2023-03-22T06:25:53.085Z,4.90
2023-03-22T06:26:54.779Z,4.90
2023-03-22T06:27:56.580Z,5.00
2023-03-22T06:28:58.292Z,5.00
2023-03-22T06:30:00.373Z,5.10
2023-03-22T06:31:09.820Z,5.10
2023-03-22T06:32:11.583Z,5.20
2023-03-22T06:33:13.368Z,5.20
2023-03-22T06:34:15.322Z,5.30
2023-03-22T06:35:17.277Z,5.30
2023-03-22T06:36:19.066Z,5.40
2023-03-22T06:37:21.237Z,5.50
2023-03-22T06:38:22.971Z,5.50
2023-03-22T06:39:24.972Z,5.60
2023-03-22T06:40:27.255Z,5.60
2023-03-22T06:41:29.096Z,5.70
2023-03-22T06:42:30.971Z,5.70
2023-03-22T06:43:33.357Z,5.80
2023-03-22T06:44:35.217Z,5.80
2023-03-22T06:45:36.985Z,5.90
2023-03-22T06:46:38.766Z,5.90
2023-03-22T06:47:40.701Z,5.90
2023-03-22T06:48:42.785Z,6.00
2023-03-22T06:49:44.430Z,6.00
2023-03-22T06:50:46.478Z,6.10
2023-03-22T06:51:48.346Z,6.10
2023-03-22T06:52:50.122Z,6.20
2023-03-22T06:53:51.920Z,6.30
2023-03-22T06:54:55.834Z,6.40
2023-03-22T06:55:57.742Z,6.40
2023-03-22T06:56:59.462Z,6.40
2023-03-22T06:58:02.013Z,6.50
2023-03-22T06:59:04.083Z,6.60
2023-03-22T07:00:06.740Z,6.70
2023-03-22T07:01:08.596Z,6.70
2023-03-22T07:02:12.812Z,6.80
2023-03-22T07:03:15.014Z,6.70
2023-03-22T07:04:16.811Z,6.90
2023-03-22T07:05:18.712Z,7.00
2023-03-22T07:06:20.600Z,7.10
2023-03-22T07:07:22.348Z,7.20
2023-03-22T07:08:24.053Z,7.30
2023-03-22T07:09:26.955Z,7.40
2023-03-22T07:10:29.677Z,7.50
2023-03-22T07:11:31.438Z,7.50
2023-03-22T07:12:33.357Z,7.60
2023-03-22T07:13:35.293Z,7.50
2023-03-22T07:14:37.081Z,7.80
2023-03-22T07:15:38.993Z,7.80
2023-03-22T07:16:41.001Z,8.00
2023-03-22T07:17:42.775Z,8.00
2023-03-22T07:18:44.506Z,8.10
2023-03-22T07:19:46.300Z,8.20
2023-03-22T07:20:47.976Z,8.30
2023-03-22T07:21:49.895Z,8.40
2023-03-22T07:22:51.697Z,8.50
2023-03-22T07:23:53.402Z,8.60
2023-03-22T07:24:58.319Z,8.70
2023-03-22T07:26:01.249Z,8.80
2023-03-22T07:27:02.983Z,8.90
2023-03-22T07:28:06.949Z,9.10
2023-03-22T07:29:08.725Z,9.10
2023-03-22T07:30:11.371Z,9.20
2023-03-22T07:31:14.184Z,9.30
2023-03-22T07:32:16.381Z,9.40
2023-03-22T07:33:18.306Z,9.50
2023-03-22T07:34:20.249Z,9.60
2023-03-22T07:35:22.102Z,9.60
2023-03-22T07:36:25.717Z,9.80
2023-03-22T07:37:27.548Z,9.90
2023-03-22T07:38:29.342Z,10.00
2023-03-22T07:39:31.599Z,10.10
2023-03-22T07:40:33.394Z,10.20
2023-03-22T07:41:35.300Z,10.30
2023-03-22T07:42:37.299Z,10.40
2023-03-22T07:43:52.394Z,10.50
2023-03-22T07:44:56.186Z,10.60
2023-03-22T07:45:58.119Z,10.70
2023-03-22T07:46:59.909Z,10.80
2023-03-22T07:48:01.929Z,10.90
2023-03-22T07:49:03.768Z,11.00
2023-03-22T07:50:06.223Z,11.10
2023-03-22T07:51:08.229Z,11.10
2023-03-22T07:52:10.294Z,11.20
2023-03-22T07:53:12.846Z,11.30
2023-03-22T07:54:30.524Z,11.50
2023-03-22T07:55:34.638Z,11.50
2023-03-22T07:56:36.579Z,11.60
2023-03-22T07:57:38.729Z,11.70
2023-03-22T07:58:40.478Z,11.80
2023-03-22T07:59:44.181Z,11.90
2023-03-22T08:00:46.009Z,11.90
2023-03-22T08:01:47.781Z,12.00
2023-03-22T08:02:49.644Z,12.10
2023-03-22T08:03:51.458Z,12.10
2023-03-22T08:04:56.467Z,12.20
2023-03-22T08:06:04.450Z,12.20
2023-03-22T08:07:10.064Z,12.30
2023-03-22T08:08:13.528Z,12.40
2023-03-22T08:09:15.638Z,12.50
2023-03-22T08:10:17.715Z,12.50
2023-03-22T08:11:19.483Z,12.60
2023-03-22T08:12:21.787Z,12.70
2023-03-22T08:13:23.622Z,12.70
2023-03-22T08:14:35.953Z,12.80
2023-03-22T08:15:38.423Z,12.80
2023-03-22T08:16:41.665Z,12.90
2023-03-22T08:17:43.542Z,12.90
2023-03-22T08:18:45.472Z,12.90
2023-03-22T08:19:47.531Z,13.00
2023-03-22T08:20:57.007Z,13.00
2023-03-22T08:21:59.688Z,13.10
2023-03-22T08:23:01.506Z,13.20
2023-03-22T08:24:04.793Z,13.30
2023-03-22T08:25:07.202Z,13.30
2023-03-22T08:26:10.386Z,13.30
2023-03-22T08:27:12.284Z,13.40
2023-03-22T08:28:15.833Z,13.40
2023-03-22T08:29:18.691Z,13.40
2023-03-22T08:30:22.374Z,13.50
2023-03-22T08:31:24.177Z,13.50
2023-03-22T08:32:25.976Z,13.50
2023-03-22T08:33:28.636Z,13.60
2023-03-22T08:34:31.406Z,13.60
2023-03-22T08:35:33.632Z,13.60
2023-03-22T08:36:35.645Z,13.60
2023-03-22T08:37:37.465Z,13.60
2023-03-22T08:38:39.173Z,13.60
2023-03-22T08:39:41.104Z,13.60
2023-03-22T08:40:46.863Z,13.70
2023-03-22T08:41:48.729Z,13.70
2023-03-22T08:42:50.835Z,13.70
2023-03-22T08:43:52.574Z,13.80
2023-03-22T08:44:54.367Z,13.80
2023-03-22T08:45:56.630Z,13.90
2023-03-22T08:46:58.676Z,14.00
2023-03-22T08:48:00.772Z,13.90
2023-03-22T08:49:03.422Z,13.90
2023-03-22T08:50:05.607Z,13.90
2023-03-22T08:51:07.492Z,13.90
2023-03-22T08:52:09.374Z,13.90
2023-03-22T08:53:11.266Z,14.00
2023-03-22T08:54:13.705Z,14.00
2023-03-22T08:55:17.353Z,14.00
2023-03-22T08:56:20.148Z,14.00
2023-03-22T08:57:23.890Z,14.00
2023-03-22T08:58:25.720Z,14.00
2023-03-22T08:59:27.878Z,14.00
2023-03-22T09:00:42.289Z,14.00
2023-03-22T09:01:49.481Z,14.00
2023-03-22T09:02:51.442Z,14.00
2023-03-22T09:03:53.189Z,14.00
2023-03-22T09:04:55.056Z,14.00
2023-03-22T09:05:57.108Z,14.00
2023-03-22T09:06:58.889Z,14.10
2023-03-22T09:08:06.235Z,14.10
2023-03-22T09:09:08.214Z,14.10
2023-03-22T09:10:10.850Z,14.20
2023-03-22T09:11:13.184Z,14.20
2023-03-22T09:12:14.886Z,14.20
2023-03-22T09:13:17.397Z,14.30
2023-03-22T09:14:19.297Z,14.30
2023-03-22T09:15:21.214Z,14.30
2023-03-22T09:16:23.099Z,14.40
2023-03-22T09:17:24.948Z,14.40
2023-03-22T09:18:27.482Z,14.50
2023-03-22T09:19:29.439Z,14.50
2023-03-22T09:20:31.110Z,14.50
2023-03-22T09:21:32.817Z,14.50
2023-03-22T09:22:34.553Z,14.60
2023-03-22T09:23:37.900Z,14.60
2023-03-22T09:24:40.270Z,14.60
2023-03-22T09:25:45.915Z,14.60
2023-03-22T09:26:47.814Z,14.70
2023-03-22T09:27:50.013Z,14.70
2023-03-22T09:28:51.844Z,14.70
2023-03-22T09:29:53.821Z,14.70
2023-03-22T09:30:59.413Z,14.80
2023-03-22T09:32:01.294Z,14.80
2023-03-22T09:33:03.598Z,14.80
2023-03-22T09:34:05.766Z,14.90
2023-03-22T09:35:07.822Z,14.80
2023-03-22T09:36:11.951Z,14.80
2023-03-22T09:37:14.723Z,14.80
2023-03-22T09:38:16.443Z,14.80
2023-03-22T09:39:18.317Z,14.90
2023-03-22T09:40:20.749Z,14.90
2023-03-22T09:41:39.357Z,14.90
2023-03-22T09:42:50.254Z,14.90
2023-03-22T09:43:57.164Z,14.90
2023-03-22T09:45:01.544Z,15.00
2023-03-22T09:46:07.611Z,15.00
2023-03-22T09:47:18.305Z,15.00
2023-03-22T09:48:31.480Z,15.00
2023-03-22T09:49:52.965Z,15.10
2023-03-22T09:50:55.734Z,15.10
2023-03-22T09:51:58.746Z,15.20
2023-03-22T09:53:00.839Z,15.10
2023-03-22T09:54:02.738Z,15.10
2023-03-22T09:55:13.722Z,15.20
2023-03-22T09:56:23.949Z,15.20
2023-03-22T09:57:34.712Z,15.30
2023-03-22T09:58:43.677Z,15.30
2023-03-22T09:59:58.498Z,15.30
2023-03-22T10:01:13.275Z,15.40
2023-03-22T10:02:21.738Z,15.40
2023-03-22T10:03:23.403Z,15.40
2023-03-22T10:04:31.024Z,15.40
2023-03-22T10:05:45.589Z,15.50
2023-03-22T10:06:54.940Z,15.50
2023-03-22T10:08:06.170Z,15.60
2023-03-22T10:09:13.961Z,15.60
2023-03-22T10:10:21.840Z,15.60
2023-03-22T10:11:45.001Z,15.60
2023-03-22T10:12:47.342Z,15.70
2023-03-22T10:14:02.004Z,15.70
2023-03-22T10:15:26.257Z,15.70
2023-03-22T10:16:33.192Z,15.80
2023-03-22T10:17:36.518Z,15.80
2023-03-22T10:18:51.561Z,15.80
2023-03-22T10:20:00.006Z,15.90
2023-03-22T10:21:10.919Z,15.90
2023-03-22T10:22:17.357Z,15.90
2023-03-22T10:23:44.018Z,15.90
2023-03-22T10:24:48.625Z,16.00
2023-03-22T10:25:51.403Z,16.00
2023-03-22T10:26:54.073Z,16.00
2023-03-22T10:27:57.853Z,16.00
2023-03-22T10:29:04.116Z,16.00
2023-03-22T10:30:21.656Z,16.00
2023-03-22T10:31:26.658Z,16.00
2023-03-22T10:32:59.590Z,16.00
2023-03-22T10:34:29.374Z,16.00
2023-03-22T10:35:32.072Z,15.90
2023-03-22T10:36:36.623Z,15.90
2023-03-22T10:37:40.617Z,15.90
2023-03-22T10:38:50.401Z,15.90
2023-03-22T10:39:58.073Z,15.90
2023-03-22T10:41:02.057Z,15.90
2023-03-22T10:42:08.823Z,16.00
2023-03-22T10:43:33.792Z,16.00
2023-03-22T10:44:44.748Z,16.10
2023-03-22T10:45:46.854Z,16.10
2023-03-22T10:46:49.715Z,16.10
2023-03-22T10:48:19.241Z,16.20
2023-03-22T10:49:45.327Z,16.20
2023-03-22T10:50:47.633Z,16.20
2023-03-22T10:51:57.691Z,16.30
2023-03-22T10:53:26.162Z,16.30
2023-03-22T10:54:28.367Z,16.30
2023-03-22T10:55:30.895Z,16.40
2023-03-22T10:56:32.636Z,16.40
2023-03-22T10:57:34.437Z,16.40
2023-03-22T10:58:36.228Z,16.50
2023-03-22T10:59:49.874Z,16.50
2023-03-22T11:00:54.536Z,16.60
2023-03-22T11:01:56.523Z,16.70
2023-03-22T11:03:00.516Z,16.70
2023-03-22T11:04:12.410Z,16.70
2023-03-22T11:05:29.000Z,16.80
2023-03-22T11:06:35.345Z,16.80
2023-03-22T11:07:45.240Z,16.80
2023-03-22T11:08:50.445Z,16.90
2023-03-22T11:09:59.711Z,17.00
2023-03-22T11:11:08.013Z,17.00
2023-03-22T11:12:13.142Z,17.00
2023-03-22T11:13:23.072Z,17.10
2023-03-22T11:14:35.657Z,17.10
2023-03-22T11:15:49.158Z,17.10
2023-03-22T11:16:59.516Z,17.10
2023-03-22T11:18:06.160Z,17.20
2023-03-22T11:19:20.439Z,17.30
2023-03-22T11:20:22.990Z,17.30
2023-03-22T11:21:30.569Z,17.40
2023-03-22T11:22:41.198Z,17.40
2023-03-22T11:23:53.861Z,17.50
2023-03-22T11:24:56.900Z,17.50
2023-03-22T11:26:06.093Z,17.50
2023-03-22T11:27:25.012Z,17.60
2023-03-22T11:28:41.995Z,17.70
2023-03-22T11:29:46.198Z,17.70
2023-03-22T11:31:09.931Z,17.80
2023-03-22T11:32:31.156Z,17.80
2023-03-22T11:33:33.886Z,17.90
2023-03-22T11:34:36.609Z,17.90
2023-03-22T11:35:39.637Z,17.90
2023-03-22T11:37:50.353Z,17.90
2023-03-22T11:39:01.199Z,18.00
2023-03-22T11:40:04.621Z,18.00
2023-03-22T11:41:22.002Z,18.10
2023-03-22T11:42:23.815Z,18.20
2023-03-22T11:43:40.167Z,18.20
2023-03-22T11:44:43.409Z,18.30
2023-03-22T11:45:46.174Z,18.50
2023-03-22T11:46:58.839Z,18.60
2023-03-22T11:48:07.497Z,18.70
2023-03-22T11:49:14.792Z,18.90
2023-03-22T11:50:28.449Z,19.00
2023-03-22T11:51:33.567Z,19.20
2023-03-22T11:52:36.016Z,19.30
2023-03-22T11:53:41.821Z,19.40
2023-03-22T11:54:45.821Z,19.50
2023-03-22T11:55:49.857Z,19.60
2023-03-22T11:56:54.455Z,19.70
2023-03-22T11:57:56.943Z,19.80
2023-03-22T11:59:04.139Z,19.90
2023-03-22T12:00:21.512Z,20.00
2023-03-22T12:01:39.575Z,20.00
2023-03-22T12:02:55.313Z,20.00
2023-03-22T12:03:57.983Z,20.00
2023-03-22T12:05:19.059Z,20.00
2023-03-22T12:06:25.906Z,20.00
2023-03-22T12:07:30.115Z,20.00
2023-03-22T12:08:47.325Z,20.00
2023-03-22T12:10:24.833Z,20.10
2023-03-22T12:11:39.396Z,20.10
2023-03-22T12:12:49.398Z,20.10
2023-03-22T12:14:34.926Z,20.00
2023-03-22T12:15:41.023Z,20.10
2023-03-22T12:16:49.969Z,20.20
2023-03-22T12:18:16.348Z,20.30
2023-03-22T12:19:31.247Z,20.40
2023-03-22T12:20:45.478Z,20.50
2023-03-22T12:21:50.349Z,20.60
2023-03-22T12:22:55.119Z,20.60
2023-03-22T12:24:01.405Z,20.60
2023-03-22T12:25:04.055Z,20.60
2023-03-22T12:26:17.983Z,20.60
2023-03-22T12:27:34.369Z,20.50
2023-03-22T12:28:55.682Z,20.40
2023-03-22T12:30:02.913Z,20.30
2023-03-22T12:31:07.965Z,20.10
2023-03-22T12:32:19.457Z,20.10
2023-03-22T12:33:26.686Z,20.00
2023-03-22T12:34:44.023Z,20.00
2023-03-22T12:35:47.284Z,19.90
2023-03-22T12:36:53.668Z,19.90
2023-03-22T12:37:59.006Z,20.00
2023-03-22T12:39:02.704Z,19.90
2023-03-22T12:40:43.784Z,19.90
2023-03-22T12:41:49.578Z,20.00
2023-03-22T12:42:58.940Z,20.00
2023-03-22T12:44:11.874Z,20.00
2023-03-22T12:45:22.498Z,20.00
2023-03-22T12:46:34.216Z,20.10
2023-03-22T12:47:42.794Z,20.30
2023-03-22T12:48:52.112Z,20.30
2023-03-22T12:50:28.942Z,20.40
2023-03-22T12:51:30.726Z,20.50
2023-03-22T12:52:48.842Z,20.40
2023-03-22T12:53:56.801Z,20.40
2023-03-22T12:55:01.415Z,20.40
2023-03-22T12:56:03.629Z,20.50
2023-03-22T12:57:06.431Z,20.40
2023-03-22T12:58:10.149Z,20.30
2023-03-22T12:59:26.290Z,20.30
2023-03-22T13:00:53.225Z,20.30
2023-03-22T13:01:59.013Z,20.20
2023-03-22T13:03:30.030Z,20.10
2023-03-22T13:04:49.671Z,20.00
2023-03-22T13:06:01.943Z,20.00
2023-03-22T13:07:30.947Z,20.00
2023-03-22T13:09:02.239Z,20.10
2023-03-22T13:10:37.147Z,20.10
2023-03-22T13:11:39.216Z,20.30
2023-03-22T13:12:41.165Z,20.40
2023-03-22T13:13:45.012Z,20.50
2023-03-22T13:14:52.482Z,20.60
2023-03-22T13:16:11.162Z,20.70
2023-03-22T13:17:15.395Z,20.80
2023-03-22T13:18:43.690Z,20.90
2023-03-22T13:20:08.036Z,20.90
2023-03-22T13:21:22.376Z,20.90
2023-03-22T13:22:27.615Z,21.00
2023-03-22T13:23:29.360Z,21.10
2023-03-22T13:24:32.517Z,21.20
2023-03-22T13:25:37.428Z,21.20
2023-03-22T13:26:54.492Z,21.20
2023-03-22T13:28:03.312Z,21.30
2023-03-22T13:29:18.648Z,21.40
2023-03-22T13:30:49.274Z,21.50
2023-03-22T13:32:01.903Z,21.70
2023-03-22T13:33:09.767Z,21.70
2023-03-22T13:34:21.522Z,21.80
2023-03-22T13:35:28.700Z,21.80
2023-03-22T13:36:32.006Z,21.80
2023-03-22T13:37:47.237Z,21.70
2023-03-22T13:39:09.063Z,21.60
2023-03-22T13:40:25.954Z,21.60
2023-03-22T13:41:35.958Z,21.50
2023-03-22T13:42:42.074Z,21.40
2023-03-22T13:43:44.326Z,21.20
2023-03-22T13:44:57.020Z,21.10
2023-03-22T13:46:05.396Z,21.00
2023-03-22T13:47:28.549Z,21.00
2023-03-22T13:48:41.371Z,21.00
2023-03-22T13:49:48.065Z,21.00
2023-03-22T13:50:50.154Z,21.00
2023-03-22T13:51:52.798Z,21.00
2023-03-22T13:53:00.220Z,21.00
2023-03-22T13:54:11.394Z,20.90
2023-03-22T13:55:41.229Z,20.90
2023-03-22T13:56:58.629Z,21.00
2023-03-22T13:58:01.786Z,21.10
2023-03-22T13:59:04.654Z,21.10
2023-03-22T14:00:20.789Z,21.20
2023-03-22T14:01:54.244Z,21.20
2023-03-22T14:03:01.948Z,21.20
2023-03-22T14:04:11.095Z,21.30
2023-03-22T14:05:20.689Z,21.40
2023-03-22T14:06:25.825Z,21.40
2023-03-22T14:07:46.673Z,21.40
2023-03-22T14:08:54.370Z,21.40
2023-03-22T14:10:08.000Z,21.30
2023-03-22T14:11:57.451Z,21.30
2023-03-22T14:13:17.233Z,21.30
2023-03-22T14:14:29.856Z,21.20
2023-03-22T14:15:35.159Z,21.10
2023-03-22T14:16:55.835Z,21.10
2023-03-22T14:18:06.211Z,21.10
2023-03-22T14:19:14.333Z,21.10
2023-03-22T14:20:22.308Z,21.00
2023-03-22T14:21:33.804Z,20.90
